Time;durP1;ratioP1;P1;durP2;ratioP2;P2;SDS_P1;SDS_P2;PMS_P1;PMS_P2;Temp;Humidity;BMP_temperature;BMP_pressure;BME280_temperature;BME280_humidity;BME280_pressure;Samples;Min_cycle;Max_cycle;Signal;HPM_P1;HPM_P2
2023/01/27 00:01:06;;;;;;;65.20;58.70;;;;;;;-0.41;89.45;97956.98;108826;1292;22216;-83
2023/01/27 00:03:35;;;;;;;63.30;56.60;;;;;;;-0.42;89.34;97962.08;108848;1297;22595;-83
2023/01/27 00:06:03;;;;;;;64.20;57.70;;;;;;;-0.45;89.28;97959.55;108820;1297;22166;-83
2023/01/27 00:08:31;;;;;;;64.80;58.60;;;;;;;-0.42;89.37;97955.58;108747;1298;22844;-83
2023/01/27 00:13:48;;;;;;;67.10;60.40;;;;;;;-0.45;89.32;97952.77;108480;1296;22228;-83
2023/01/27 00:16:18;;;;;;;65.60;59.40;;;;;;;-0.48;89.39;97950.94;108795;1297;22975;-83
2023/01/27 00:18:46;;;;;;;69.40;62.70;;;;;;;-0.54;89.33;97955.66;108761;1297;23110;-83
2023/01/27 00:26:47;;;;;;;68.70;61.70;;;;;;;-0.70;89.10;97953.92;108782;1298;22165;-84
2023/01/27 00:29:15;;;;;;;71.10;63.60;;;;;;;-0.67;89.43;97951.04;108780;1298;23386;-83
2023/01/27 00:34:30;;;;;;;79.50;70.70;;;;;;;-0.66;89.30;97960.96;108851;1297;22312;-84
2023/01/27 00:36:58;;;;;;;78.40;70.70;;;;;;;-0.69;89.45;97964.17;108601;1295;22148;-83
2023/01/27 00:39:26;;;;;;;87.90;78.80;;;;;;;-0.72;89.39;97964.61;108675;1298;22964;-82
2023/01/27 00:41:54;;;;;;;87.20;75.90;;;;;;;-0.76;89.44;97967.25;108771;1295;22155;-82
2023/01/27 00:44:22;;;;;;;80.10;72.10;;;;;;;-0.77;89.38;97967.52;108766;1298;22851;-83
2023/01/27 00:46:50;;;;;;;77.80;69.90;;;;;;;-0.73;89.49;97967.48;108760;1295;22342;-81
2023/01/27 00:49:19;;;;;;;74.00;66.50;;;;;;;-0.69;89.46;97967.87;108752;1298;22211;-81
2023/01/27 00:51:47;;;;;;;75.70;68.20;;;;;;;-0.66;89.47;97963.60;108739;1298;22955;-81
2023/01/27 00:54:16;;;;;;;79.10;71.30;;;;;;;-0.65;89.68;97963.88;108611;1298;23367;-82
2023/01/27 00:56:47;;;;;;;80.70;72.90;;;;;;;-0.64;89.73;97962.32;108742;1292;22266;-82
2023/01/27 00:59:15;;;;;;;81.10;73.40;;;;;;;-0.67;89.56;97967.65;108747;1298;22254;-82
2023/01/27 01:01:45;;;;;;;74.60;67.20;;;;;;;-0.69;89.65;97964.16;108750;1298;22270;-82
2023/01/27 01:04:13;;;;;;;64.80;58.80;;;;;;;-0.68;89.54;97960.53;108763;1298;22899;-82
2023/01/27 01:06:40;;;;;;;68.60;62.00;;;;;;;-0.68;89.53;97958.90;108743;1298;23091;-82
2023/01/27 01:09:09;;;;;;;66.90;60.50;;;;;;;-0.65;89.53;97953.90;108743;1286;22288;-82
2023/01/27 01:11:37;;;;;;;68.60;62.10;;;;;;;-0.62;89.48;97953.00;108740;1298;22334;-82
2023/01/27 01:14:05;;;;;;;70.60;63.80;;;;;;;-0.63;89.64;97948.82;108761;1298;22250;-83
2023/01/27 01:16:33;;;;;;;73.40;66.60;;;;;;;-0.67;89.43;97947.21;108659;1297;22254;-83
2023/01/27 01:19:01;;;;;;;73.40;66.80;;;;;;;-0.70;89.72;97948.52;108768;1298;22262;-82
2023/01/27 01:21:29;;;;;;;69.20;62.80;;;;;;;-0.72;89.75;97948.17;108780;1298;22965;-82
2023/01/27 01:23:57;;;;;;;65.60;59.50;;;;;;;-0.69;89.91;97945.20;108767;1298;22231;-83
2023/01/27 01:26:25;;;;;;;60.70;55.00;;;;;;;-0.65;89.81;97942.09;108747;1298;22123;-83
2023/01/27 01:28:54;;;;;;;58.40;52.70;;;;;;;-0.62;89.62;97944.12;108750;1298;22200;-82
2023/01/27 01:31:22;;;;;;;56.10;50.70;;;;;;;-0.61;89.48;97945.09;108757;1292;22259;-82
2023/01/27 01:33:50;;;;;;;58.30;52.60;;;;;;;-0.64;89.68;97943.79;108729;1297;22262;-82
2023/01/27 01:36:19;;;;;;;62.50;56.90;;;;;;;-0.67;89.57;97948.02;108748;1298;22183;-82
2023/01/27 01:38:48;;;;;;;64.40;58.60;;;;;;;-0.69;89.85;97946.95;108751;1298;22242;-82
2023/01/27 01:41:19;;;;;;;67.90;61.20;;;;;;;-0.68;90.07;97946.40;108753;1298;22252;-82
2023/01/27 01:43:48;;;;;;;55.90;50.80;;;;;;;-0.66;89.93;97947.00;108748;1298;22234;-82
2023/01/27 01:46:17;;;;;;;53.90;48.70;;;;;;;-0.64;89.73;97947.35;108739;1298;22220;-82
2023/01/27 01:49:09;;;;;;;54.70;49.20;;;;;;;-0.61;89.70;97947.21;108742;1298;22329;-84
2023/01/27 01:51:43;;;;;;;55.70;50.60;;;;;;;-0.62;89.58;97948.56;108040;1298;22252;-84
2023/01/27 01:54:17;;;;;;;58.30;52.80;;;;;;;-0.68;89.52;97947.99;108051;1303;23020;-84
2023/01/27 01:56:52;;;;;;;60.60;54.60;;;;;;;-0.71;89.63;97948.80;108194;1303;22375;-84
2023/01/27 01:59:28;;;;;;;62.50;56.80;;;;;;;-0.71;89.92;97945.23;108010;1304;22258;-84
2023/01/27 02:02:02;;;;;;;55.30;49.70;;;;;;;-0.75;89.84;97946.70;108161;1303;22348;-84
2023/01/27 02:04:37;;;;;;;55.00;49.40;;;;;;;-0.77;89.70;97943.37;108179;1303;22337;-84
2023/01/27 02:07:12;;;;;;;56.10;50.80;;;;;;;-0.78;89.68;97943.40;108193;1303;22257;-84
2023/01/27 02:09:41;;;;;;;53.80;48.90;;;;;;;-0.76;89.43;97942.83;108190;1303;23025;-84
2023/01/27 02:12:09;;;;;;;61.30;55.70;;;;;;;-0.77;89.72;97941.85;108177;1303;23056;-84
2023/01/27 02:14:40;;;;;;;58.00;52.60;;;;;;;-0.78;89.49;97942.64;108200;1303;22202;-83
2023/01/27 02:17:11;;;;;;;58.80;53.20;;;;;;;-0.81;89.84;97940.92;108209;1303;23088;-83
2023/01/27 02:19:45;;;;;;;56.20;51.10;;;;;;;-0.84;89.87;97935.55;108210;1303;22367;-83
2023/01/27 02:22:23;;;;;;;55.40;50.00;;;;;;;-0.88;89.78;97936.46;108202;1303;22316;-83
2023/01/27 02:24:59;;;;;;;50.40;45.70;;;;;;;-0.89;89.72;97939.17;108203;1303;22311;-84
2023/01/27 02:27:27;;;;;;;50.80;46.10;;;;;;;-0.88;89.76;97941.27;108185;1295;23215;-84
2023/01/27 02:29:55;;;;;;;52.00;47.30;;;;;;;-0.84;89.82;97944.19;108686;1297;22225;-83
2023/01/27 02:32:25;;;;;;;51.40;46.60;;;;;;;-0.82;89.68;97948.23;108796;1292;22298;-83
2023/01/27 02:34:55;;;;;;;51.70;47.00;;;;;;;-0.82;89.84;97944.98;108770;1297;22165;-83
2023/01/27 02:37:24;;;;;;;51.90;47.00;;;;;;;-0.84;89.90;97945.77;108755;1297;22229;-83
2023/01/27 02:39:54;;;;;;;53.60;48.80;;;;;;;-0.91;89.79;97944.64;108657;1297;22221;-83
2023/01/27 02:42:23;;;;;;;54.50;49.40;;;;;;;-0.94;89.85;97940.65;108764;1297;22404;-83
2023/01/27 02:44:50;;;;;;;48.20;43.70;;;;;;;-0.94;89.87;97943.95;108781;1297;22201;-83
2023/01/27 02:47:18;;;;;;;47.90;43.60;;;;;;;-0.91;89.71;97947.53;108739;1297;22213;-83
2023/01/27 02:49:48;;;;;;;50.80;46.20;;;;;;;-0.89;89.82;97945.95;108684;1297;22267;-83
2023/01/27 02:52:16;;;;;;;55.60;50.50;;;;;;;-0.85;89.72;97941.88;108760;1297;22233;-83
2023/01/27 02:54:44;;;;;;;52.90;48.30;;;;;;;-0.83;90.07;97943.52;108827;1297;22232;-83
2023/01/27 02:57:12;;;;;;;52.10;47.40;;;;;;;-0.82;89.80;97946.56;108837;1297;22333;-82
2023/01/27 02:59:51;;;;;;;59.40;54.20;;;;;;;-0.84;89.90;97944.23;108827;1294;22215;-82
2023/01/27 03:02:21;;;;;;;49.00;44.60;;;;;;;-0.86;89.89;97941.27;108798;1297;22248;-82
2023/01/27 03:04:50;;;;;;;46.20;41.80;;;;;;;-0.88;89.68;97944.44;108692;1298;22210;-83
2023/01/27 03:07:19;;;;;;;44.30;40.20;;;;;;;-0.87;89.82;97942.40;108780;1297;22229;-83
2023/01/27 03:09:47;;;;;;;45.20;41.20;;;;;;;-0.85;89.51;97944.64;108833;1297;22309;-82
2023/01/27 03:12:21;;;;;;;47.10;43.00;;;;;;;-0.85;89.64;97943.47;108850;1297;22369;-82
2023/01/27 03:20:24;;;;;;;48.20;44.00;;;;;;;-0.92;89.79;97947.27;108851;1297;22139;-82
2023/01/27 03:22:52;;;;;;;48.70;44.40;;;;;;;-0.95;89.78;97943.80;108885;1297;22312;-82
2023/01/27 03:25:21;;;;;;;53.00;46.00;;;;;;;-0.96;89.64;97942.07;108681;1297;22287;-82
2023/01/27 03:32:31;;;;;;;60.40;54.90;;;;;;;-0.91;89.66;97946.60;108869;1297;22155;-81
2023/01/27 03:35:21;;;;;;;65.00;59.20;;;;;;;-0.88;89.87;97945.70;108589;1289;22240;-82
2023/01/27 03:46:18;;;;;;;61.90;56.40;;;;;;;-0.93;89.84;97936.17;108706;1297;22233;-82
2023/01/27 03:48:54;;;;;;;60.90;55.30;;;;;;;-0.92;89.63;97936.27;108871;1297;22281;-82
2023/01/27 03:51:24;;;;;;;61.60;56.10;;;;;;;-0.88;89.77;97935.56;108847;1297;22247;-82
2023/01/27 03:53:52;;;;;;;61.70;56.20;;;;;;;-0.89;89.63;97932.23;108839;1292;22442;-82
2023/01/27 03:56:21;;;;;;;58.50;53.30;;;;;;;-0.88;89.58;97937.23;108683;1297;23042;-82
2023/01/27 03:58:49;;;;;;;55.70;50.80;;;;;;;-0.96;89.52;97935.95;108868;1297;22321;-82
2023/01/27 04:01:22;;;;;;;52.30;47.60;;;;;;;-1.01;89.47;97938.38;108848;1297;22934;-82
2023/01/27 04:09:40;;;;;;;44.80;40.80;;;;;;;-1.20;89.47;97937.44;108486;1297;22242;-84
2023/01/27 04:12:08;;;;;;;48.00;43.50;;;;;;;-1.21;89.56;97933.77;108859;1297;22124;-82
2023/01/27 04:14:40;;;;;;;46.50;42.40;;;;;;;-1.22;89.58;97935.17;108850;1297;22416;-82
2023/01/27 04:17:15;;;;;;;47.40;43.20;;;;;;;-1.22;89.64;97933.39;108833;1289;22236;-83
2023/01/27 04:19:45;;;;;;;46.60;42.50;;;;;;;-1.22;89.79;97928.77;108834;1297;23050;-82
2023/01/27 04:22:14;;;;;;;48.80;44.50;;;;;;;-1.26;89.73;97931.57;108681;1297;22943;-82
2023/01/27 04:24:42;;;;;;;46.90;42.70;;;;;;;-1.30;89.52;97935.40;108831;1292;22340;-82
2023/01/27 04:27:14;;;;;;;44.80;40.80;;;;;;;-1.31;89.53;97933.95;108831;1297;22275;-82
2023/01/27 04:29:42;;;;;;;44.50;40.60;;;;;;;-1.28;89.75;97936.88;108840;1297;23101;-82
2023/01/27 04:32:11;;;;;;;44.40;40.10;;;;;;;-1.25;89.46;97932.70;108841;1297;22451;-82
2023/01/27 04:34:40;;;;;;;43.90;40.00;;;;;;;-1.25;89.48;97932.58;108852;1297;22948;-83
2023/01/27 04:37:09;;;;;;;42.50;38.90;;;;;;;-1.30;89.54;97938.38;108858;1297;22229;-82
2023/01/27 04:39:37;;;;;;;43.50;39.70;;;;;;;-1.33;89.40;97935.27;108809;1297;22289;-82
2023/01/27 04:42:05;;;;;;;52.50;48.00;;;;;;;-1.38;89.43;97934.84;108841;1297;23052;-83
2023/01/27 04:44:33;;;;;;;55.40;50.30;;;;;;;-1.41;89.41;97932.19;108864;1297;22325;-83
2023/01/27 04:47:01;;;;;;;47.90;43.30;;;;;;;-1.44;89.17;97933.64;108860;1297;22986;-83
2023/01/27 04:49:28;;;;;;;39.60;36.10;;;;;;;-1.43;89.27;97933.58;108764;1297;22144;-83
2023/01/27 04:51:56;;;;;;;41.30;37.80;;;;;;;-1.41;89.19;97934.59;108772;1297;22265;-83
2023/01/27 04:54:24;;;;;;;41.90;38.20;;;;;;;-1.41;88.96;97937.44;108863;1297;22356;-84
2023/01/27 04:56:59;;;;;;;44.90;40.90;;;;;;;-1.42;89.16;97935.73;108805;1297;23009;-83
2023/01/27 04:59:27;;;;;;;43.20;39.40;;;;;;;-1.42;89.39;97939.98;108826;1291;22196;-83
2023/01/27 05:01:55;;;;;;;44.40;40.40;;;;;;;-1.41;89.54;97939.87;108839;1297;22280;-83
2023/01/27 05:04:25;;;;;;;43.80;39.90;;;;;;;-1.44;89.17;97942.84;108816;1297;22290;-83
2023/01/27 05:06:53;;;;;;;44.40;40.30;;;;;;;-1.50;89.25;97941.77;108838;1297;22258;-83
2023/01/27 05:09:21;;;;;;;46.50;38.20;;;;;;;-1.51;89.15;97940.36;108835;1297;22231;-83
2023/01/27 05:11:49;;;;;;;41.20;37.50;;;;;;;-1.51;89.17;97946.86;108855;1297;22367;-83
2023/01/27 05:14:18;;;;;;;42.00;38.20;;;;;;;-1.49;89.15;97949.20;108847;1297;23110;-83
2023/01/27 05:16:46;;;;;;;43.40;39.60;;;;;;;-1.49;89.12;97954.69;108860;1297;22400;-84
2023/01/27 05:19:14;;;;;;;43.50;39.60;;;;;;;-1.53;89.07;97952.68;108846;1297;23147;-82
2023/01/27 05:21:43;;;;;;;42.60;38.80;;;;;;;-1.56;89.05;97954.33;108827;1297;22276;-83
2023/01/27 05:24:11;;;;;;;40.90;37.20;;;;;;;-1.59;88.90;97958.48;108837;1295;22227;-82
2023/01/27 05:26:39;;;;;;;41.80;38.00;;;;;;;-1.64;88.96;97961.45;108677;1297;22336;-83
2023/01/27 05:29:08;;;;;;;41.60;37.90;;;;;;;-1.66;89.04;97968.09;108849;1297;22245;-82
2023/01/27 05:31:36;;;;;;;40.40;36.70;;;;;;;-1.64;88.90;97959.96;108841;1297;23106;-82
2023/01/27 05:34:04;;;;;;;43.20;37.40;;;;;;;-1.61;88.86;97957.04;108696;1297;23034;-82
2023/01/27 05:36:32;;;;;;;38.30;34.90;;;;;;;-1.61;88.93;97957.73;108670;1297;22890;-82
2023/01/27 05:39:00;;;;;;;40.90;37.40;;;;;;;-1.63;88.90;97957.79;108851;1297;22297;-83
2023/01/27 05:41:31;;;;;;;43.30;39.30;;;;;;;-1.63;89.12;97953.73;108693;1297;22220;-83
2023/01/27 05:43:59;;;;;;;42.10;38.20;;;;;;;-1.65;88.86;97960.13;108855;1297;22379;-83
2023/01/27 05:46:29;;;;;;;40.20;36.50;;;;;;;-1.69;88.68;97960.98;108680;1297;22222;-82
2023/01/27 05:49:00;;;;;;;40.50;36.80;;;;;;;-1.71;88.79;97967.05;108671;1297;22308;-82
2023/01/27 05:51:31;;;;;;;35.90;32.80;;;;;;;-1.70;88.61;97961.36;108878;1297;22197;-83
2023/01/27 05:53:59;;;;;;;38.60;35.20;;;;;;;-1.68;88.69;97960.15;108671;1297;22260;-82
2023/01/27 05:56:27;;;;;;;38.40;34.90;;;;;;;-1.70;88.78;97954.48;108654;1297;22250;-82
2023/01/27 05:58:56;;;;;;;38.90;35.40;;;;;;;-1.71;88.74;97956.77;108849;1289;22292;-83
2023/01/27 06:01:32;;;;;;;37.80;34.50;;;;;;;-1.73;88.72;97960.00;108644;1297;22224;-83
2023/01/27 06:04:00;;;;;;;38.60;35.20;;;;;;;-1.74;88.97;97965.90;108843;1297;22254;-83
2023/01/27 06:06:30;;;;;;;33.90;30.90;;;;;;;-1.75;88.83;97965.34;108828;1297;22951;-83
2023/01/27 06:08:59;;;;;;;33.50;30.30;;;;;;;-1.76;88.58;97973.08;108559;1297;22985;-83
2023/01/27 06:11:27;;;;;;;32.80;29.80;;;;;;;-1.76;88.53;97981.32;108654;1297;22263;-83
2023/01/27 06:13:55;;;;;;;31.90;29.00;;;;;;;-1.72;88.56;97976.00;108854;1297;22317;-84
2023/01/27 06:16:24;;;;;;;31.70;28.90;;;;;;;-1.70;88.50;97980.34;108828;1297;22243;-83
2023/01/27 06:18:53;;;;;;;36.30;33.00;;;;;;;-1.71;88.53;97985.55;108835;1297;22230;-83
2023/01/27 06:21:21;;;;;;;33.50;30.00;;;;;;;-1.72;88.45;97988.29;108839;1297;22297;-84
2023/01/27 06:23:49;;;;;;;41.70;37.40;;;;;;;-1.74;88.62;97986.17;108842;1289;23406;-83
2023/01/27 06:26:18;;;;;;;40.10;36.60;;;;;;;-1.74;88.51;97988.54;108853;1297;22367;-83
2023/01/27 06:28:46;;;;;;;35.40;32.10;;;;;;;-1.74;88.59;97988.37;108867;1297;22163;-82
2023/01/27 06:31:18;;;;;;;42.20;38.20;;;;;;;-1.72;88.44;97985.91;108839;1297;22297;-82
2023/01/27 06:33:46;;;;;;;33.90;30.60;;;;;;;-1.70;88.31;97990.21;108852;1297;22276;-83
2023/01/27 06:36:17;;;;;;;33.50;30.50;;;;;;;-1.65;88.22;97988.14;108863;1297;22950;-82
2023/01/27 06:38:46;;;;;;;35.30;32.10;;;;;;;-1.64;88.11;97988.66;108851;1297;23118;-82
2023/01/27 06:41:14;;;;;;;35.70;32.30;;;;;;;-1.65;88.32;97992.45;108865;1297;22267;-84
2023/01/27 06:43:42;;;;;;;35.20;31.80;;;;;;;-1.65;88.21;97994.59;108881;1289;22276;-81
2023/01/27 06:46:11;;;;;;;34.70;31.50;;;;;;;-1.65;88.21;97997.23;108869;1297;22365;-82
2023/01/27 06:48:39;;;;;;;35.30;32.10;;;;;;;-1.66;88.22;97994.07;108859;1297;22303;-81
2023/01/27 06:51:07;;;;;;;37.90;34.20;;;;;;;-1.70;87.93;97995.86;108847;1297;22947;-82
2023/01/27 06:53:36;;;;;;;33.90;30.60;;;;;;;-1.73;88.16;97998.36;108838;1292;22240;-83
2023/01/27 06:56:05;;;;;;;33.70;30.50;;;;;;;-1.72;87.91;97999.61;108844;1297;22226;-82
2023/01/27 06:58:33;;;;;;;33.90;30.80;;;;;;;-1.67;87.94;98003.67;108777;1297;22286;-81
2023/01/27 07:01:04;;;;;;;33.80;30.60;;;;;;;-1.63;87.90;98000.05;109029;1297;22311;-82
2023/01/27 07:03:33;;;;;;;35.40;32.20;;;;;;;-1.57;87.60;98002.53;108797;1297;22232;-81
2023/01/27 07:05:59;;;;;;;37.60;34.10;;;;;;;-1.58;87.69;98003.71;108682;1297;22224;-82
2023/01/27 07:08:27;;;;;;;38.00;34.30;;;;;;;-1.61;87.73;98007.36;108868;1289;22322;-82
2023/01/27 07:10:56;;;;;;;35.80;32.40;;;;;;;-1.62;87.61;98004.08;108847;1297;22267;-82
2023/01/27 07:13:24;;;;;;;37.20;33.70;;;;;;;-1.64;87.65;98006.30;108891;1297;22150;-82
2023/01/27 07:15:54;;;;;;;36.10;32.90;;;;;;;-1.66;87.28;98008.67;108849;1297;22210;-82
2023/01/27 07:18:22;;;;;;;35.40;32.20;;;;;;;-1.70;87.24;98010.77;108859;1289;22257;-83
2023/01/27 07:20:50;;;;;;;33.30;30.20;;;;;;;-1.69;86.87;98009.63;108870;1297;22971;-82
2023/01/27 07:23:18;;;;;;;31.30;28.50;;;;;;;-1.65;87.06;98014.51;108683;1292;22222;-82
2023/01/27 07:25:46;;;;;;;32.60;29.60;;;;;;;-1.61;86.89;98017.77;108860;1297;22309;-83
2023/01/27 07:28:14;;;;;;;33.60;30.70;;;;;;;-1.59;86.97;98017.21;108890;1289;22351;-83
2023/01/27 07:30:42;;;;;;;35.00;31.80;;;;;;;-1.61;86.75;98013.95;108865;1297;22916;-83
2023/01/27 07:33:13;;;;;;;33.10;30.10;;;;;;;-1.61;86.17;98017.27;108841;1297;23038;-83
2023/01/27 07:35:41;;;;;;;33.60;30.60;;;;;;;-1.67;86.12;98021.27;108653;1297;23054;-83
2023/01/27 07:38:10;;;;;;;35.40;32.20;;;;;;;-1.66;86.36;98022.45;108885;1297;22223;-83
2023/01/27 07:40:38;;;;;;;35.90;32.60;;;;;;;-1.68;86.34;98017.90;108864;1297;22298;-83
2023/01/27 07:43:06;;;;;;;35.30;32.00;;;;;;;-1.69;85.79;98014.55;108838;1297;22234;-83
2023/01/27 07:45:34;;;;;;;34.00;30.90;;;;;;;-1.67;86.03;98018.34;108754;1297;22917;-83
2023/01/27 07:48:05;;;;;;;33.30;30.30;;;;;;;-1.59;86.26;98019.70;109024;1297;22256;-83
2023/01/27 07:50:35;;;;;;;34.60;31.40;;;;;;;-1.51;86.16;98022.60;108847;1297;22286;-83
2023/01/27 07:53:04;;;;;;;36.40;33.10;;;;;;;-1.48;85.85;98022.48;108832;1297;22307;-83
2023/01/27 07:55:33;;;;;;;39.80;36.10;;;;;;;-1.47;85.67;98018.49;108685;1297;22882;-83
2023/01/27 07:58:01;;;;;;;42.90;39.00;;;;;;;-1.48;85.81;98014.92;108853;1297;22243;-83
2023/01/27 08:00:29;;;;;;;42.20;38.20;;;;;;;-1.48;85.49;98011.42;108876;1297;22225;-83
2023/01/27 08:02:58;;;;;;;42.50;38.60;;;;;;;-1.51;84.98;98016.02;108861;1297;22229;-83
2023/01/27 08:05:28;;;;;;;38.70;35.20;;;;;;;-1.55;84.80;98014.76;108845;1297;22249;-82
2023/01/27 08:07:57;;;;;;;36.50;33.20;;;;;;;-1.57;85.02;98016.55;108842;1297;22245;-82
2023/01/27 08:10:25;;;;;;;38.10;34.30;;;;;;;-1.54;84.97;98015.84;108968;1297;22961;-85
2023/01/27 08:12:54;;;;;;;37.70;34.10;;;;;;;-1.50;84.79;98019.22;109048;1297;22118;-83
2023/01/27 08:15:22;;;;;;;39.00;32.50;;;;;;;-1.48;84.62;98018.40;108844;1297;23320;-83
2023/01/27 08:17:54;;;;;;;36.60;33.40;;;;;;;-1.50;84.66;98022.58;108733;1289;22249;-83
2023/01/27 08:20:24;;;;;;;37.90;34.50;;;;;;;-1.50;84.44;98025.43;108903;1296;22254;-83
2023/01/27 08:22:52;;;;;;;36.90;33.60;;;;;;;-1.50;84.67;98029.02;108972;1296;22131;-86
2023/01/27 08:25:21;;;;;;;39.30;35.60;;;;;;;-1.50;84.63;98029.98;108678;1297;22222;-84
2023/01/27 08:27:54;;;;;;;38.40;34.70;;;;;;;-1.51;84.40;98032.23;108831;1297;22229;-84
2023/01/27 08:30:23;;;;;;;40.70;36.90;;;;;;;-1.54;84.10;98033.77;108837;1297;22261;-84
2023/01/27 08:32:51;;;;;;;44.50;40.40;;;;;;;-1.56;84.06;98039.95;108667;1297;22232;-84
2023/01/27 08:35:19;;;;;;;45.30;41.10;;;;;;;-1.56;84.06;98038.20;108892;1297;22118;-85
2023/01/27 08:37:47;;;;;;;48.30;43.60;;;;;;;-1.55;83.71;98036.13;108876;1297;22205;-86
2023/01/27 08:40:16;;;;;;;43.40;39.20;;;;;;;-1.50;84.13;98035.22;108650;1297;22151;-85
2023/01/27 08:42:45;;;;;;;40.70;36.80;;;;;;;-1.43;84.15;98040.08;108865;1297;22138;-86
2023/01/27 08:45:13;;;;;;;44.80;40.80;;;;;;;-1.40;84.05;98042.17;108703;1297;22129;-84
2023/01/27 08:47:41;;;;;;;43.80;39.80;;;;;;;-1.38;84.30;98043.30;108897;1297;22163;-84
2023/01/27 08:50:10;;;;;;;46.60;42.40;;;;;;;-1.37;84.20;98042.55;108733;1292;22255;-84
2023/01/27 08:52:38;;;;;;;62.80;43.20;;;;;;;-1.36;84.00;98045.99;108756;1297;22264;-86
2023/01/27 08:55:07;;;;;;;48.80;43.60;;;;;;;-1.37;84.05;98047.99;108996;1292;22241;-84
2023/01/27 08:57:35;;;;;;;49.20;44.80;;;;;;;-1.34;84.17;98049.92;109314;1297;22913;-84
2023/01/27 09:00:06;;;;;;;46.10;41.80;;;;;;;-1.33;84.03;98054.39;109069;1297;22980;-84
2023/01/27 09:02:34;;;;;;;45.20;40.90;;;;;;;-1.34;83.34;98054.76;108708;1297;22280;-84
2023/01/27 09:05:02;;;;;;;44.10;39.90;;;;;;;-1.35;83.15;98055.71;108916;1289;22186;-84
2023/01/27 09:12:02;;;;;;;45.90;41.50;;;;;;;-1.19;83.64;98061.05;109000;1289;22286;-85
2023/01/27 09:14:30;;;;;;;41.30;37.50;;;;;;;-1.17;83.73;98063.17;108939;1296;23011;-84
2023/01/27 09:16:58;;;;;;;44.20;40.00;;;;;;;-1.17;82.97;98066.02;108860;1297;22944;-84
2023/01/27 09:19:27;;;;;;;41.90;38.10;;;;;;;-1.21;82.80;98068.71;108856;1297;22251;-84
2023/01/27 09:21:55;;;;;;;42.90;39.20;;;;;;;-1.21;83.09;98067.69;108857;1297;22370;-84
2023/01/27 09:24:23;;;;;;;41.90;38.00;;;;;;;-1.23;82.77;98068.08;108698;1297;22173;-84
2023/01/27 09:26:51;;;;;;;42.10;38.40;;;;;;;-1.24;82.96;98070.48;108935;1289;22669;-85
2023/01/27 09:29:19;;;;;;;38.50;35.00;;;;;;;-1.25;82.23;98073.14;108874;1296;22931;-85
2023/01/27 09:31:47;;;;;;;38.60;34.90;;;;;;;-1.29;82.59;98076.27;108929;1295;22242;-86
2023/01/27 09:34:18;;;;;;;38.50;34.90;;;;;;;-1.28;82.83;98070.98;109155;1296;21918;-85
2023/01/27 09:36:51;;;;;;;37.80;34.10;;;;;;;-1.23;83.17;98073.52;108786;1296;23083;-81
2023/01/27 09:39:20;;;;;;;39.40;35.70;;;;;;;-1.09;83.36;98078.06;108915;1296;22213;-85
2023/01/27 09:42:24;;;;;;;40.30;36.70;;;;;;;-1.01;83.00;98078.67;108902;1296;23395;-83
2023/01/27 09:44:58;;;;;;;39.70;36.10;;;;;;;-0.98;83.32;98077.38;108873;1296;23013;-85
2023/01/27 09:47:40;;;;;;;40.20;36.60;;;;;;;-0.96;83.20;98072.56;108873;1297;22109;-84
2023/01/27 09:50:26;;;;;;;38.80;35.10;;;;;;;-0.98;82.98;98071.45;108871;1290;22250;-85
2023/01/27 09:53:24;;;;;;;41.40;37.80;;;;;;;-0.97;83.36;98072.85;108958;1289;22156;-85
2023/01/27 09:56:27;;;;;;;42.30;38.50;;;;;;;-0.94;83.35;98078.52;108944;1289;22263;-87
2023/01/27 09:59:17;;;;;;;41.80;38.00;;;;;;;-0.90;83.34;98078.24;108964;1296;22631;-87
2023/01/27 10:02:06;;;;;;;45.20;41.00;;;;;;;-0.87;83.22;98074.63;108820;1297;22956;-86
2023/01/27 10:04:40;;;;;;;47.40;43.00;;;;;;;-0.86;83.07;98070.95;108817;1297;22173;-86
2023/01/27 10:07:08;;;;;;;42.50;38.60;;;;;;;-0.88;82.89;98067.06;108608;1297;22194;-85
2023/01/27 10:10:01;;;;;;;36.40;33.10;;;;;;;-0.85;82.76;98065.84;108635;1288;22869;-85
2023/01/27 10:12:43;;;;;;;41.80;34.40;;;;;;;-0.77;82.67;98067.99;108919;1296;22179;-84
2023/01/27 10:15:14;;;;;;;38.90;35.10;;;;;;;-0.67;82.70;98063.40;108894;1289;22174;-83
2023/01/27 10:18:02;;;;;;;37.50;33.80;;;;;;;-0.58;82.90;98059.14;108888;1289;22231;-84
2023/01/27 10:21:02;;;;;;;38.10;34.50;;;;;;;-0.48;82.56;98063.45;108697;1297;22175;-83
2023/01/27 10:23:53;;;;;;;41.40;37.70;;;;;;;-0.39;82.90;98056.63;108924;1289;22307;-84
2023/01/27 10:26:21;;;;;;;37.70;34.00;;;;;;;-0.27;82.83;98054.45;108922;1288;22313;-84
2023/01/27 10:28:56;;;;;;;39.00;35.50;;;;;;;-0.20;82.51;98057.55;108893;1289;22229;-84
2023/01/27 10:31:31;;;;;;;38.40;34.70;;;;;;;-0.16;82.33;98056.71;108841;1289;22301;-84
2023/01/27 10:34:11;;;;;;;41.70;37.80;;;;;;;-0.10;82.47;98052.05;108864;1279;22153;-86
2023/01/27 10:36:59;;;;;;;39.00;35.30;;;;;;;-0.05;82.43;98052.43;108640;1292;22256;-82
2023/01/27 10:39:45;;;;;;;38.30;34.90;;;;;;;-0.03;81.78;98054.30;108758;1289;22230;-86
2023/01/27 10:42:27;;;;;;;37.20;33.90;;;;;;;-0.07;81.16;98055.89;108911;1297;23063;-84
2023/01/27 10:45:16;;;;;;;35.30;32.00;;;;;;;-0.13;80.76;98050.84;108651;1297;22233;-84
2023/01/27 10:47:50;;;;;;;33.90;30.60;;;;;;;-0.18;81.15;98048.29;108832;1297;22241;-84
2023/01/27 10:50:27;;;;;;;33.70;30.60;;;;;;;-0.12;81.63;98049.44;108843;1297;22990;-85
2023/01/27 10:53:04;;;;;;;33.40;30.30;;;;;;;-0.05;81.04;98050.91;108825;1297;22985;-84
2023/01/27 10:55:47;;;;;;;34.70;31.50;;;;;;;-0.03;81.11;98052.32;108687;1297;22244;-84
2023/01/27 10:58:26;;;;;;;33.30;30.30;;;;;;;-0.01;81.16;98053.23;108843;1297;22192;-85
2023/01/27 11:00:56;;;;;;;33.40;30.30;;;;;;;-0.01;81.40;98052.45;108860;1297;22244;-85
2023/01/27 11:03:52;;;;;;;33.70;30.60;;;;;;;0.02;81.26;98057.05;108664;1292;22222;-86
2023/01/27 11:06:24;;;;;;;35.60;32.10;;;;;;;0.03;80.98;98054.55;108846;1297;22284;-84
2023/01/27 11:09:04;;;;;;;44.60;40.40;;;;;;;0.05;80.99;98045.48;108852;1297;22798;-85
2023/01/27 11:11:46;;;;;;;36.50;33.10;;;;;;;0.08;80.60;98053.91;108849;1297;22201;-86
2023/01/27 11:14:23;;;;;;;42.30;38.30;;;;;;;0.06;79.66;98046.56;108720;1297;22291;-84
2023/01/27 11:16:59;;;;;;;40.30;36.30;;;;;;;0.00;80.23;98044.25;108704;1297;22299;-85
2023/01/27 11:20:05;;;;;;;39.30;35.60;;;;;;;-0.05;79.85;98042.33;108853;1297;23324;-86
2023/01/27 11:23:08;;;;;;;41.10;37.30;;;;;;;-0.06;79.89;98049.60;108030;1304;22217;-85
2023/01/27 11:25:45;;;;;;;40.60;36.80;;;;;;;-0.12;79.89;98046.34;107975;1304;23008;-84
2023/01/27 11:28:47;;;;;;;39.10;35.70;;;;;;;-0.09;79.93;98047.85;107984;1304;23137;-85
2023/01/27 11:31:36;;;;;;;38.50;34.90;;;;;;;-0.09;79.44;98047.57;108029;1298;22278;-85
2023/01/27 11:34:25;;;;;;;36.20;32.70;;;;;;;-0.12;78.76;98052.83;107857;1304;205883;-84
2023/01/27 11:36:53;;;;;;;35.20;31.90;;;;;;;-0.12;78.36;98048.51;107900;1304;22290;-85
2023/01/27 11:39:21;;;;;;;31.50;28.60;;;;;;;-0.12;78.32;98046.59;107981;1304;22271;-85
2023/01/27 11:41:54;;;;;;;32.90;30.00;;;;;;;-0.15;78.05;98048.91;108037;1304;22948;-86
2023/01/27 11:44:30;;;;;;;30.30;27.50;;;;;;;-0.14;78.87;98048.48;108056;1288;22436;-85
2023/01/27 11:46:58;;;;;;;35.30;31.80;;;;;;;-0.11;79.36;98048.25;107929;1304;22369;-86
2023/01/27 11:49:33;;;;;;;35.90;32.70;;;;;;;-0.08;79.11;98043.58;107963;1304;22293;-85
2023/01/27 11:52:09;;;;;;;35.60;32.10;;;;;;;-0.08;77.86;98040.98;107930;1300;22245;-85
2023/01/27 11:55:07;;;;;;;36.20;33.00;;;;;;;-0.15;78.01;98042.35;108076;1304;22252;-85
2023/01/27 11:57:40;;;;;;;36.60;33.30;;;;;;;-0.25;76.71;98040.43;108551;1297;22244;-85
2023/01/27 12:00:11;;;;;;;38.60;35.10;;;;;;;-0.32;77.90;98040.42;108653;1297;22310;-85
2023/01/27 12:03:27;;;;;;;35.70;32.50;;;;;;;-0.30;77.82;98041.47;108860;1297;22859;-87
2023/01/27 12:05:59;;;;;;;;;;;;;;;-0.33;76.65;98042.88;108275;1297;23277;-85
2023/01/27 12:08:35;;;;;;;33.70;30.40;;;;;;;-0.39;76.26;98039.38;108699;1297;22236;-86
2023/01/27 12:11:16;;;;;;;31.00;28.20;;;;;;;-0.38;76.44;98047.39;108861;1294;22343;-84